< < Back
Terminal Aerodrome Forecast


Current Version              Previous Versions:   1  2  3  4  5  6  7  8  9  

Terminal Aerodrome Forecast

981
FTUS42 KJAX 291129
TAFJAX
TAF
KJAX 291129Z 2912/3012 30006KT 1SM BR OVC002
     FM291300 30006KT P6SM FEW005 BKN009
     FM291400 30006KT P6SM FEW050 SCT250
     FM291900 09008KT P6SM SCT050
     FM300200 VRB02KT P6SM FEW250=



Latest METAR

649
SAUS80 KWBC 291200 CCA
MTRJAX
METAR KJAX 291156Z 29005KT 4SM BR OVC003 21/21 A3002 RMK AO2 SLP166
T02110211 10211 20194 53019


USA.gov is the U.S. government's official web portal to all federal, state and local government web resources and services.